Tiempo atmosférico en la estación meteorológica de Alconchel, Badajoz (170 m.)



Fecha
DESCASC
Temp. máxima en grados centígrados (hora)
DESCASC
Temp. mínima en grados centígrados (hora)
DESCASC
Temp. media en grados centígrados
DESCASC
Racha de viento máxima en m/sg (hora)
DESCASC
Velocidad máxima media en intervalos de 10 minutos(hora)
DESCASC
Precipitaciones diarias en mm
DESCASC
Precipitaciones de 00:00 a 06:00 en mm
DESCASC
Precipitaciones de 06:00 a 12:00 en mm
DESCASC
Precipitaciones de 12:00 a 18:00 en mm
DESCASC
Precipitaciones de 18:00 a 24:00 en mm
DESCASC
18-01-2018 15.9 (17:00) 5.1 (09:00) 10.5 10.56 (13:20) 7.5 (13:50) 0 0 0 0 0
17-01-2018 16.8 (15:10) 8.6 (23:50) 12.7 8.33 (14:20) 5 (14:50) 0 0 0 0 0
16-01-2018 12.7 (21:40) 3.5 (00:30) 8.1 5.83 (22:40) 3.33 (22:40) 0 0 0 0 0
15-01-2018 12.4 (16:10) 1.7 (09:00) 7 6.39 (15:50) 4.17 (10:50) 0 0 0 0 0
14-01-2018 11.3 (15:30) 5.2 (00:00) 8.3 7.22 (14:40) 4.44 (14:50) 1.4 0.2 1.2 0 0
13-01-2018 13.8 (17:00) 5.5 (00:00) 9.7 10 (09:40) 6.94 (10:00) 7.4 0 6.8 0 0.6
12-01-2018 11.2 (16:00) 0.8 (00:00) 6 3.33 (22:00) 2.22 (22:00) 0.2 0 0.2 0 0
11-01-2018 13.9 (17:10) 4.6 (00:00) 9.2 11.94 (15:10) 7.22 (13:00) 0 0 0 0 0
10-01-2018 15.7 (14:40) 7.8 (00:00) 11.8 15.83 (16:30) 9.17 (16:30) 0.4 0 0 0.4 0
09-01-2018 10.7 (18:50) 2.3 (00:00) 6.5 12.5 (14:30) 9.17 (14:30) 7.2 0 0.8 5.6 0.8
08-01-2018 10.3 (15:10) 3.7 (00:00) 7 7.78 (12:10) 5.28 (12:10) 2 2 0 0 0
07-01-2018 9.9 (17:20) 3.2 (00:00) 6.5 5.28 (15:30) 3.33 (16:00) 0 0 0 0 0
06-01-2018 10.9 (16:10) 5 (00:00) 7.9 11.39 (17:10) 6.94 (14:30) 0 0 0 0 0
05-01-2018 13.1 (11:40) 8.9 (00:00) 11 11.39 (13:00) 8.33 (13:10) 21 0 0 14.6 6.4
04-01-2018 15.8 (13:30) 13 (23:40) 14.4 7.78 (22:50) 5 (22:50) 0 0 0 0 0
03-01-2018 16.6 (16:00) 10.9 (00:00) 13.8 5.56 (16:50) 3.61 (16:30) 0 0 0 0 0
02-01-2018 16.2 (15:20) 3.4 (00:00) 9.8 3.61 (16:10) 2.22 (16:40) 0.2 0 0.2 0 0
01-01-2018 14.7 (16:50) 2.9 (00:00) 8.8 4.72 (16:40) 3.06 (17:30) 0 0 0 0 0
31-12-2017 15.6 (15:10) 7.6 (00:00) 11.6 13.06 (15:20) 8.06 (15:20) 0.6 0 0 0.6 0
30-12-2017 16.9 (14:50) 9.2 (00:00) 13 3.61 (15:10) 2.5 (14:40) 0 0 0 0 0
29-12-2017 16.9 (13:30) 12.8 (00:00) 14.8 8.06 (13:30) 5 (13:30) 0.2 0.2 0 0 0
28-12-2017 16.5 (14:30) 12.1 (00:00) 14.3 10.56 (05:00) 7.22 (04:40) 0.2 0.2 0 0 0
27-12-2017 14.4 (16:10) 11 (00:00) 12.7 15.56 (03:10) 9.17 (02:00) 2.6 1.8 0.6 0.2 0
26-12-2017 12.4 (16:30) 8.1 (00:00) 10.3 11.67 (21:30) 8.06 (22:00) 0.8 0.2 0.2 0 0.4
25-12-2017 14.7 (15:40) 8.5 (00:00) 11.6 8.89 (14:20) 6.11 (14:20) 0.2 0 0 0 0.2
24-12-2017 16.1 (16:00) 4.1 (00:00) 10.1 4.72 (14:20) 3.33 (15:10) 0 0 0 0 0

Gráficas

Temp. máximas Temp. mínimas Temp. medias Precipitaciones Rachas de viento máximas Velocidades máximas media en intervalos de 10 minutos

Datos horarios

Fecha y hora oficial Temperatura (ºC) Velocidad del viento (km/h) Dirección del viento Racha (km/h) Dirección de racha Precipitación (mm) Presión (hPa) Tendencia (hPa) Humedad (%)
2018-01-22 23:00:00 6.8 0 Calma 4 Sur 0 -- -- 99
2018-01-22 22:00:00 7.8 0 Calma 4 Oeste 0 -- -- 98
2018-01-22 21:00:00 8.3 3 Sur 4 Sur 0 -- -- 97
2018-01-22 20:00:00 9 2 Sur 6 Sur 0 -- -- 96
2018-01-22 19:00:00 9.6 4 Sudeste 11 Sur 0 -- -- 93
2018-01-22 18:00:00 11.2 5 Sur 11 Sudeste 0 -- -- 89
2018-01-22 17:00:00 11.6 7 Sur 12 Sur 0 -- -- 88
2018-01-22 16:00:00 10.7 2 Este 12 Norte 0 -- -- 92
2018-01-22 15:00:00 9.9 5 Nordeste 10 Norte 0 -- -- 93
2018-01-22 14:00:00 9.6 3 Noroeste 8 Noroeste 0 -- -- 96
2018-01-22 13:00:00 9.3 3 Norte 8 Norte 0 -- -- 97
2018-01-22 12:00:00 8.9 3 Nordeste 7 Noroeste 0 -- -- 99
2018-01-22 11:00:00 8.5 2 Noroeste 9 Norte 0 -- -- 100
2018-01-22 10:00:00 8.4 3 Norte 8 Norte 0 -- -- 100
2018-01-22 09:00:00 8.2 4 Nordeste 7 Este 0 -- -- 100
2018-01-22 08:00:00 8 0 Calma 12 Nordeste 0 -- -- 100
2018-01-22 07:00:00 8.1 3 Nordeste 10 Norte 0 -- -- 100
2018-01-22 06:00:00 7.7 2 Norte 4 Norte 0.2 -- -- 100
2018-01-22 05:00:00 7.1 0 Calma 4 Este 0 -- -- 100
2018-01-22 04:00:00 6.3 3 Este 6 Sudeste 0 -- -- 100
2018-01-22 03:00:00 6.8 3 Sudeste 7 Sudeste 0 -- -- 98
2018-01-22 02:00:00 7 5 Sudeste 6 Sudeste 0 -- -- 97
2018-01-22 01:00:00 7.6 3 Sudeste 7 Sudeste 0 -- -- 97
2018-01-22 00:00:00 7.9 7 Sudeste 9 Sudeste 0 -- -- 97
2018-01-21 23:00:00 8.5 5 Sudeste 8 Sudeste 0 -- -- 95
2018-01-21 22:00:00 9.5 0 Calma 10 Norte 0 -- -- 93
2018-01-21 21:00:00 11.3 0 Calma 10 Noroeste 0 -- -- 90
2018-01-21 20:00:00 12.6 5 Noroeste 8 Noroeste 0 -- -- 86
2018-01-21 19:00:00 13.6 4 Noroeste 5 Noroeste 0 -- -- 81
2018-01-21 18:00:00 15 3 Sudoeste 8 Sudoeste 0 -- -- 77
2018-01-21 17:00:00 14.7 5 Sudoeste 8 Sudoeste 0 -- -- 79
2018-01-21 16:00:00 14 6 Sur 10 Sur 0 -- -- 80
2018-01-21 15:00:00 12.9 8 Sur 11 Sudoeste 0 -- -- 85
2018-01-21 14:00:00 11 0 Calma 5 Sur 0 -- -- 94
2018-01-21 13:00:00 9.8 4 Sudoeste 5 Sudoeste 0 -- -- 99
2018-01-21 12:00:00 8.5 4 Sur 7 Sur 0 -- -- 100
2018-01-21 11:00:00 7.9 2 Sur 4 Sur 0 -- -- 100
2018-01-21 10:00:00 7.5 2 Sur 8 Sudoeste 0 -- -- 100
2018-01-21 09:00:00 7.1 5 Sudoeste 8 Sudoeste 0 -- -- 100
2018-01-21 08:00:00 6.9 2 Norte 10 Norte 0 -- -- 100
2018-01-21 07:00:00 6.4 8 Norte 15 Norte 0 -- -- 100
2018-01-21 06:00:00 5.4 0 Calma 6 Noroeste 0 -- -- 97
2018-01-21 05:00:00 5.4 0 Calma 4 Sudeste 0 -- -- 97
2018-01-21 04:00:00 5.6 0 Calma 4 Este 0 -- -- 95
2018-01-21 03:00:00 6.7 4 Este 6 Sudeste 0 -- -- 95
2018-01-21 02:00:00 7.8 2 Norte 9 Noroeste 0 -- -- 95
2018-01-21 01:00:00 8 4 Nordeste 8 Norte 0 -- -- 93
2018-01-21 00:00:00 8.3 4 Norte 6 Norte 0 -- -- 91
2018-01-20 23:00:00 8.8 3 Noroeste 11 Nordeste 0 -- -- 87
2018-01-20 22:00:00 9.7 4 Este 6 Este 0 -- -- 83
2018-01-20 21:00:00 10.9 2 Oeste 12 Norte 0 -- -- 78
2018-01-20 20:00:00 11.6 10 Norte 16 Noroeste 0 -- -- 74
2018-01-20 19:00:00 12.7 9 Norte 18 Noroeste 0 -- -- 63
2018-01-20 18:00:00 15.4 11 Noroeste 25 Noroeste 0 -- -- 45
2018-01-20 17:00:00 17.3 15 Oeste 22 Oeste 0 -- -- 40
2018-01-20 16:00:00 16.2 6 Sudoeste 12 Sudoeste 0 -- -- 70
2018-01-20 15:00:00 14 8 Sudoeste 11 Sudoeste 0 -- -- 71
2018-01-20 14:00:00 12.1 6 Sudoeste 11 Oeste 0 -- -- 80
2018-01-20 13:00:00 8.5 2 Oeste 6 Sur 0 -- -- 100
2018-01-20 12:00:00 5.9 2 Sur 6 Sudoeste 0 -- -- 100
2018-01-20 11:00:00 4.3 0 Calma 4 Oeste 0 -- -- 100
2018-01-20 10:00:00 2.8 0 Calma 5 Sudeste 0 -- -- 100
2018-01-20 09:00:00 2.1 3 Sur 4 Sur 0 -- -- 98
2018-01-20 08:00:00 2.6 0 Calma 2 Este 0 -- -- 99
2018-01-20 07:00:00 2.9 0 Calma 5 Sur 0 -- -- 98
2018-01-20 06:00:00 4.3 0 Calma 4 Norte 0 -- -- 98
2018-01-20 05:00:00 4.8 0 Calma 4 Este 0 -- -- 97
2018-01-20 04:00:00 5.5 0 Calma 3 Noroeste 0 -- -- 97
2018-01-20 03:00:00 5.6 0 Calma 7 Norte 0 -- -- 94
2018-01-20 02:00:00 6.1 0 Calma 2 Nordeste 0 -- -- 94
2018-01-20 01:00:00 7.9 0 Calma 2 Nordeste 0 -- -- 91
2018-01-20 00:00:00 7.9 0 Calma 4 Nordeste 0 -- -- 88
2018-01-19 23:00:00 9.4 0 Calma 7 Norte 0 -- -- 82
2018-01-19 22:00:00 10.5 5 Norte 8 Norte 0 -- -- 77
2018-01-19 21:00:00 12 0 Calma 12 Norte 0 -- -- 71
2018-01-19 20:00:00 13.5 4 Norte 12 Norte 0 -- -- 65
2018-01-19 19:00:00 15 3 Noroeste 5 Noroeste 0 -- -- 65
2018-01-19 18:00:00 17.3 2 Norte 14 Norte 0 -- -- 57
2018-01-19 17:00:00 17.4 7 Nordeste 18 Nordeste 0 -- -- 52
2018-01-19 16:00:00 17.2 12 Nordeste 29 Nordeste 0 -- -- 51
2018-01-19 15:00:00 16.1 17 Nordeste 26 Nordeste 0 -- -- 54
2018-01-19 14:00:00 15.1 16 Nordeste 26 Norte 0 -- -- 57
2018-01-19 13:00:00 14 14 Nordeste 28 Nordeste 0 -- -- 61
2018-01-19 12:00:00 11.2 9 Nordeste 18 Nordeste 0 -- -- 77
2018-01-19 11:00:00 8 7 Norte 13 Norte 0 -- -- 92
2018-01-19 10:00:00 5.4 2 Este 8 Sudeste 0 -- -- 97
2018-01-19 09:00:00 3.8 0 Calma 5 Nordeste 0 -- -- 97
2018-01-19 08:00:00 3.7 3 Nordeste 8 Este 0 -- -- 97
2018-01-19 07:00:00 4.8 0 Calma 6 Norte 0 -- -- 97
2018-01-19 06:00:00 4.8 0 Calma 5 Sudeste 0 -- -- 96
2018-01-19 05:00:00 5.4 2 Noroeste 3 Noroeste 0 -- -- 93
2018-01-19 04:00:00 5.6 2 Sur 3 Sudeste 0 -- -- 89
2018-01-19 03:00:00 5.4 2 Sudeste 7 Sur 0 -- -- 90
2018-01-19 02:00:00 6.4 0 Calma 9 Nordeste 0 -- -- 86
2018-01-19 01:00:00 7.2 2 Norte 11 Nordeste 0 -- -- 81
2018-01-19 00:00:00 8.1 5 Nordeste 14 Nordeste 0 -- -- 78
2018-01-18 23:00:00 7.8 8 Norte 13 Norte 0 -- -- 83
2018-01-18 22:00:00 9.6 10 Nordeste 15 Nordeste 0 -- -- 74
2018-01-18 21:00:00 11.3 9 Nordeste 13 Nordeste 0 -- -- 68
2018-01-18 20:00:00 12 8 Nordeste 21 Nordeste 0 -- -- 66
2018-01-18 19:00:00 13.9 16 Nordeste 26 Nordeste 0 -- -- 57
2018-01-18 18:00:00 15.2 16 Nordeste 28 Este 0 -- -- 56
2018-01-18 17:00:00 15.9 15 Nordeste 33 Nordeste 0 -- -- 53
2018-01-18 16:00:00 15.4 20 Nordeste 33 Norte 0 -- -- 54
2018-01-18 15:00:00 15.1 11 Nordeste 30 Nordeste 0 -- -- 57
2018-01-18 14:00:00 13.4 22 Nordeste 38 Nordeste 0 -- -- 63
2018-01-18 13:00:00 11.6 20 Nordeste 36 Nordeste 0 -- -- 75
2018-01-18 12:00:00 10 21 Nordeste 32 Nordeste 0 -- -- 78
2018-01-18 11:00:00 8.6 16 Nordeste 27 Nordeste 0 -- -- 85
2018-01-18 10:00:00 6.7 21 Nordeste 28 Norte 0 -- -- 93
2018-01-18 09:00:00 5.1 12 Nordeste 23 Norte 0 -- -- 98
2018-01-18 08:00:00 5.6 15 Nordeste 23 Nordeste 0 -- -- 97
2018-01-18 07:00:00 6.3 15 Nordeste 24 Norte 0 -- -- 96
2018-01-18 06:00:00 7 13 Nordeste 24 Nordeste 0 -- -- 94
2018-01-18 05:00:00 6.7 17 Nordeste 27 Nordeste 0 -- -- 98
2018-01-18 04:00:00 6.8 17 Nordeste 24 Nordeste 0 -- -- 97
2018-01-18 03:00:00 6.8 11 Nordeste 18 Norte 0 -- -- 97
2018-01-18 02:00:00 7.2 10 Norte 18 Nordeste 0 -- -- 97
2018-01-18 01:00:00 7.8 7 Nordeste 24 Nordeste 0 -- -- 95
2018-01-18 00:00:00 8.6 12 Norte 25 Norte 0 -- -- 94
2018-01-17 23:00:00 8.9 17 Norte 26 Norte 0 -- -- 93
2018-01-17 22:00:00 9.8 12 Nordeste 20 Norte 0 -- -- 91
2018-01-17 21:00:00 10.2 10 Nordeste 12 Nordeste 0 -- -- 86
2018-01-17 20:00:00 12.4 10 Este 19 Este 0 -- -- 77
2018-01-17 19:00:00 13.9 9 Este 18 Nordeste 0 -- -- 69
2018-01-17 18:00:00 15.6 12 Nordeste 27 Nordeste 0 -- -- 61
2018-01-17 17:00:00 16.6 13 Nordeste 27 Nordeste 0 -- -- 58
2018-01-17 16:00:00 16.7 18 Nordeste 30 Nordeste 0 -- -- 57
2018-01-17 15:00:00 16.7 18 Nordeste 30 Norte 0 -- -- 58
2018-01-17 14:00:00 15.9 13 Nordeste 25 Norte 0 -- -- 67
2018-01-17 13:00:00 14.5 15 Nordeste 23 Nordeste 0 -- -- 70
2018-01-17 12:00:00 12 7 Nordeste 13 Norte 0 -- -- 88
2018-01-17 11:00:00 9.9 0 Calma 7 Nordeste 0 -- -- 97
2018-01-17 10:00:00 9.7 4 Nordeste 5 Nordeste 0 -- -- 97
2018-01-17 09:00:00 9.6 3 Norte 6 Norte 0 -- -- 96
2018-01-17 08:00:00 10.2 4 Nordeste 20 Nordeste 0 -- -- 96
2018-01-17 07:00:00 10 4 Norte 11 Norte 0 -- -- 97
2018-01-17 06:00:00 10.3 8 Norte 18 Norte 0 -- -- 96
2018-01-17 05:00:00 10.8 5 Nordeste 16 Norte 0 -- -- 94
2018-01-17 04:00:00 11.1 9 Norte 22 Norte 0 -- -- 94
2018-01-17 03:00:00 11.8 12 Nordeste 24 Nordeste 0 -- -- 92
2018-01-17 02:00:00 11.9 14 Norte 24 Norte 0 -- -- 92
2018-01-17 01:00:00 12 9 Norte 17 Norte 0 -- -- 91
2018-01-17 00:00:00 12.2 6 Norte 17 Norte 0 -- -- 89
2018-01-16 23:00:00 12.4 6 Norte 21 Norte 0 -- -- 89
2018-01-16 22:00:00 12.7 8 Norte 15 Norte 0 -- -- 89
2018-01-16 21:00:00 12.4 6 Norte 10 Norte 0 -- -- 91
2018-01-16 20:00:00 12.4 0 Calma 3 Sur 0 -- -- 90
2018-01-16 19:00:00 12.3 3 Sudeste 6 Sudeste 0 -- -- 89
2018-01-16 18:00:00 12.5 3 Sur 5 Sur 0 -- -- 87
2018-01-16 17:00:00 12.4 3 Sur 5 Sur 0 -- -- 83
2018-01-16 16:00:00 12.3 0 Calma 5 Sur 0 -- -- 81
2018-01-16 15:00:00 12 3 Sudoeste 6 Sudoeste 0 -- -- 78
2018-01-16 14:00:00 11.9 3 Sudoeste 11 Sur 0 -- -- 74
2018-01-16 13:00:00 11.3 5 Sur 9 Sur 0 -- -- 77
2018-01-16 12:00:00 9.5 4 Sudoeste 6 Sudoeste 0 -- -- 79
2018-01-16 11:00:00 8.8 0 Calma 7 Sur 0 -- -- 84
2018-01-16 10:00:00 6.2 3 Sur 6 Sudeste 0 -- -- 88
2018-01-16 09:00:00 5.3 4 Sudeste 8 Sudeste 0 -- -- 90
2018-01-16 08:00:00 4.8 4 Sudeste 8 Sur 0 -- -- 91
2018-01-16 07:00:00 4.8 4 Sur 5 Sur 0 -- -- 90
2018-01-16 06:00:00 4.7 5 Sur 9 Sudeste 0 -- -- 90
2018-01-16 05:00:00 4.4 6 Sudeste 9 Sudeste 0 -- -- 91
2018-01-16 04:00:00 4 0 Calma 6 Este 0 -- -- 91
2018-01-16 03:00:00 3.6 0 Calma 7 Sudeste 0 -- -- 89
2018-01-16 02:00:00 3.6 2 Sudeste 5 Este 0 -- -- 87
2018-01-16 01:00:00 4.5 3 Sudeste 9 Sudeste 0 -- -- 84
2018-01-16 00:00:00 4.7 4 Sur 6 Sudeste 0 -- -- 83
2018-01-15 23:00:00 5.7 3 Norte 4 Norte 0 -- -- 81
2018-01-15 22:00:00 6.4 3 Norte 8 Sudeste 0 -- -- 78
2018-01-15 21:00:00 7 3 Sudeste 9 Nordeste 0 -- -- 75
2018-01-15 20:00:00 8.5 7 Nordeste 9 Este 0 -- -- 63
2018-01-15 19:00:00 10 8 Este 10 Este 0 -- -- 57
2018-01-15 18:00:00 11.8 7 Nordeste 16 Nordeste 0 -- -- 50
2018-01-15 17:00:00 12.3 11 Nordeste 20 Norte 0 -- -- 51
2018-01-15 16:00:00 12.3 12 Nordeste 23 Norte 0 -- -- 52
2018-01-15 15:00:00 11.8 13 Norte 22 Norte 0 -- -- 55
2018-01-15 14:00:00 11 10 Nordeste 19 Este 0 -- -- 58
2018-01-15 13:00:00 9.5 9 Nordeste 20 Nordeste 0 -- -- 66
2018-01-15 12:00:00 7.1 11 Nordeste 19 Nordeste 0 -- -- 82
2018-01-15 11:00:00 5.3 11 Nordeste 20 Nordeste 0 -- -- 86
2018-01-15 10:00:00 3.2 8 Nordeste 15 Norte 0 -- -- 93
2018-01-15 09:00:00 1.7 0 Calma 16 Nordeste 0 -- -- 94
2018-01-15 08:00:00 2.7 12 Nordeste 18 Nordeste 0 -- -- 92
2018-01-15 07:00:00 2.3 5 Nordeste 14 Nordeste 0 -- -- 92
2018-01-15 06:00:00 2.5 3 Nordeste 12 Norte 0 -- -- 92
2018-01-15 05:00:00 2.7 2 Nordeste 14 Nordeste 0 -- -- 95
2018-01-15 04:00:00 2.7 11 Norte 15 Nordeste 0 -- -- 98
2018-01-15 03:00:00 3.5 0 Calma 8 Nordeste 0 -- -- 96
2018-01-15 02:00:00 3.7 0 Calma 8 Nordeste 0 -- -- 92
2018-01-15 01:00:00 4.6 0 Calma 12 Nordeste 0 -- -- 93
2018-01-15 00:00:00 5.2 10 Nordeste 18 Nordeste 0 -- -- 92
2018-01-14 23:00:00 6.4 12 Nordeste 17 Nordeste 0 -- -- 86
2018-01-14 22:00:00 6.2 10 Nordeste 13 Norte 0 -- -- 85
2018-01-14 21:00:00 6.9 10 Norte 14 Norte 0 -- -- 81
2018-01-14 20:00:00 7.6 10 Norte 14 Norte 0 -- -- 76
2018-01-14 19:00:00 8.1 5 Nordeste 9 Nordeste 0 -- -- 77
2018-01-14 18:00:00 10 6 Nordeste 19 Nordeste 0 -- -- 68
2018-01-14 17:00:00 10.5 12 Norte 26 Noroeste 0 -- -- 64
2018-01-14 16:00:00 10.5 14 Norte 26 Norte 0 -- -- 65
2018-01-14 15:00:00 10.8 16 Noroeste 26 Noroeste 0 -- -- 66
2018-01-14 14:00:00 10.3 10 Noroeste 20 Noroeste 0 -- -- 75
2018-01-14 13:00:00 9.2 7 Norte 17 Noroeste 0 -- -- 80
2018-01-14 12:00:00 8.6 9 Norte 15 Norte 0 -- -- 84
2018-01-14 11:00:00 7.4 5 Norte 9 Norte 0 -- -- 93
2018-01-14 10:00:00 6.3 3 Noroeste 5 Noroeste 0 -- -- 95
2018-01-14 09:00:00 6.2 5 Noroeste 9 Noroeste 0 -- -- 95
2018-01-14 08:00:00 6.9 3 Sur 6 Sur 0 -- -- 98
2018-01-14 07:00:00 7.1 4 Sur 9 Sur 1.2 -- -- 99
2018-01-14 06:00:00 6.5 0 Calma 7 Sudeste 0.2 -- -- 98
2018-01-14 05:00:00 6.6 5 Sudeste 9 Sudeste 0 -- -- 98
2018-01-14 04:00:00 6.4 6 Sudeste 8 Sudeste 0 -- -- 97
2018-01-14 03:00:00 6.8 0 Calma 5 Nordeste 0 -- -- 96
2018-01-14 02:00:00 7.3 3 Sudoeste 8 Sur 0 -- -- 95
2018-01-14 01:00:00 7.2 4 Sur 9 Sur 0 -- -- 95
2018-01-14 00:00:00 7.2 4 Sur 8 Sur 0 -- -- 94
2018-01-13 23:00:00 7.5 5 Sur 9 Sur 0 -- -- 92
2018-01-13 22:00:00 8 6 Sur 7 Sur 0 -- -- 92
2018-01-13 21:00:00 8.9 3 Sudoeste 10 Sudoeste 0 -- -- 88
2018-01-13 20:00:00 9 3 Sudoeste 15 Norte 0.4 -- -- 89
2018-01-13 19:00:00 9.7 11 Norte 23 Noroeste 0.2 -- -- 82
2018-01-13 18:00:00 12.6 12 Noroeste 31 Noroeste 0 -- -- 66
2018-01-13 17:00:00 13.8 12 Noroeste 26 Noroeste 0 -- -- 62
2018-01-13 16:00:00 13.7 19 Noroeste 31 Noroeste 0 -- -- 64
2018-01-13 15:00:00 13 19 Noroeste 35 Noroeste 0 -- -- 71
2018-01-13 14:00:00 12.3 20 Noroeste 30 Noroeste 0 -- -- 72
2018-01-13 13:00:00 10.4 14 Sudoeste 26 Sudoeste 0 -- -- 94
2018-01-13 12:00:00 9 16 Sudoeste 23 Sudoeste 0.4 -- -- 99
2018-01-13 11:00:00 7.9 10 Sudoeste 30 Sur 0.6 -- -- 98
2018-01-13 10:00:00 7.7 25 Sur 36 Sur 2.6 -- -- 96
2018-01-13 09:00:00 7 6 Sudeste 14 Sudeste 2.2 -- -- 96
2018-01-13 08:00:00 7.1 6 Sur 14 Sur 1 -- -- 91
2018-01-13 07:00:00 7.6 5 Sur 12 Sudeste 0 -- -- 84
2018-01-13 06:00:00 7.4 7 Sur 12 Sur 0 -- -- 83
2018-01-13 05:00:00 6.8 3 Sur 9 Sur 0 -- -- 87
2018-01-13 04:00:00 6.1 0 Calma 8 Sudeste 0 -- -- 91
2018-01-13 03:00:00 5.5 4 Sudeste 9 Sudeste 0 -- -- 92
2018-01-13 02:00:00 5.7 0 Calma 7 Sudeste 0 -- -- 89
2018-01-13 01:00:00 5.6 4 Sudeste 6 Sudeste 0 -- -- 90
2018-01-13 00:00:00 6.1 3 Este 5 Este 0 -- -- 90
2018-01-12 23:00:00 6.4 0 Calma 12 Este 0 -- -- 89
2018-01-12 22:00:00 6.9 8 Este 12 Este 0 -- -- 87
2018-01-12 21:00:00 7.1 6 Este 9 Este 0 -- -- 81
2018-01-12 20:00:00 8 8 Este 11 Este 0 -- -- 74
2018-01-12 19:00:00 9.3 0 Calma 3 Este 0 -- -- 65
2018-01-12 18:00:00 10.5 0 Calma 3 Sudoeste 0 -- -- 64
2018-01-12 17:00:00 11.1 3 Sudeste 5 Sudeste 0 -- -- 59
2018-01-12 16:00:00 11.2 3 Sudoeste 9 Oeste 0 -- -- 64
2018-01-12 15:00:00 9.9 2 Oeste 5 Oeste 0 -- -- 72
2018-01-12 14:00:00 9 0 Calma 9 Noroeste 0 -- -- 81
2018-01-12 13:00:00 8.5 5 Oeste 9 Oeste 0 -- -- 85
2018-01-12 12:00:00 6.7 3 Noroeste 6 Oeste 0 -- -- 90
2018-01-12 11:00:00 5.3 0 Calma 8 Sudeste 0 -- -- 94
2018-01-12 10:00:00 2.9 2 Sudeste 7 Sudeste 0 -- -- 98
2018-01-12 09:00:00 0.8 0 Calma 9 Sudeste 0.2 -- -- 98
2018-01-12 08:00:00 1 5 Sudeste 9 Sudeste 0 -- -- 99
2018-01-12 07:00:00 1.1 5 Este 8 Sudeste 0 -- -- 99
2018-01-12 06:00:00 2.2 0 Calma 6 Noroeste 0 -- -- 99
2018-01-12 05:00:00 2.2 0 Calma 10 Este 0 -- -- 96
2018-01-12 04:00:00 3.2 4 Este 8 Este 0 -- -- 96
2018-01-12 03:00:00 4.2 0 Calma 8 Sur 0 -- -- 97
2018-01-12 02:00:00 4.1 5 Sudeste 12 Este 0 -- -- 95
2018-01-12 01:00:00 5.2 3 Sur 6 Noroeste 0 -- -- 93
2018-01-12 00:00:00 5.8 5 Noroeste 7 Noroeste 0 -- -- 93
2018-01-11 23:00:00 6.7 3 Noroeste 9 Norte 0 -- -- 91
2018-01-11 22:00:00 7.2 4 Nordeste 6 Noroeste 0 -- -- 90
2018-01-11 21:00:00 8.6 3 Oeste 6 Norte 0 -- -- 84
2018-01-11 20:00:00 9.2 6 Noroeste 13 Norte 0 -- -- 83
2018-01-11 19:00:00 10.7 8 Norte 23 Norte 0 -- -- 75
2018-01-11 18:00:00 12.3 17 Norte 27 Noroeste 0 -- -- 68
2018-01-11 17:00:00 13.3 13 Noroeste 29 Noroeste 0 -- -- 66
2018-01-11 16:00:00 13.3 17 Noroeste 43 Norte 0 -- -- 70
2018-01-11 15:00:00 13.3 20 Noroeste 30 Noroeste 0 -- -- 68
2018-01-11 14:00:00 12.6 18 Noroeste 35 Noroeste 0 -- -- 69
2018-01-11 13:00:00 12.3 26 Noroeste 39 Noroeste 0 -- -- 76
2018-01-11 12:00:00 11.1 16 Noroeste 25 Oeste 0 -- -- 88
2018-01-11 11:00:00 8.6 4 Noroeste 14 Oeste 0 -- -- 92
2018-01-11 10:00:00 6.4 3 Sudoeste 6 Sudeste 0 -- -- 95
2018-01-11 09:00:00 4.8 3 Sur 7 Sur 0 -- -- 97
2018-01-11 08:00:00 4.6 6 Sudeste 8 Este 0 -- -- 95
2018-01-11 07:00:00 5.6 3 Sur 7 Oeste 0 -- -- 94
2018-01-11 06:00:00 5.7 3 Sur 9 Sur 0 -- -- 94
2018-01-11 05:00:00 6 3 Sudoeste 11 Oeste 0 -- -- 94
2018-01-11 04:00:00 5.6 3 Sur 8 Sudeste 0 -- -- 96
2018-01-11 03:00:00 6.2 5 Sur 7 Oeste 0 -- -- 93
2018-01-11 02:00:00 6.9 0 Calma 8 Noroeste 0 -- -- 91
2018-01-11 01:00:00 7.2 3 Noroeste 6 Noroeste 0 -- -- 92
2018-01-11 00:00:00 7.8 4 Oeste 9 Oeste 0 -- -- 90
2018-01-10 23:00:00 8.3 5 Oeste 7 Oeste 0 -- -- 90
2018-01-10 22:00:00 9 3 Noroeste 13 Noroeste 0 -- -- 85
2018-01-10 21:00:00 10.1 10 Noroeste 21 Noroeste 0 -- -- 80
2018-01-10 20:00:00 11 11 Noroeste 21 Noroeste 0 -- -- 79
2018-01-10 19:00:00 11.9 15 Noroeste 26 Noroeste 0 -- -- 81
2018-01-10 18:00:00 12.5 9 Oeste 27 Oeste 0 -- -- 84
2018-01-10 17:00:00 13.2 19 Noroeste 57 Oeste 0.2 -- -- 85
2018-01-10 16:00:00 13.9 18 Oeste 41 Oeste 0.2 -- -- 83
2018-01-10 15:00:00 15.2 27 Oeste 49 Oeste 0 -- -- 74
2018-01-10 14:00:00 14.8 27 Oeste 41 Oeste 0 -- -- 77
2018-01-10 13:00:00 12.6 18 Sudoeste 28 Sudoeste 0 -- -- 94
2018-01-10 12:00:00 11.7 13 Sudoeste 18 Sudoeste 0 -- -- 97
2018-01-10 11:00:00 10.4 11 Sudoeste 19 Sur 0 -- -- 100
2018-01-10 10:00:00 9.6 10 Sur 14 Sur 0 -- -- 100
2018-01-10 09:00:00 9.4 9 Sur 13 Sur 0 -- -- 100
2018-01-10 08:00:00 9.6 5 Oeste 9 Oeste 0 -- -- 100
2018-01-10 07:00:00 8.9 3 Sur 5 Sur 0 -- -- 100
2018-01-10 06:00:00 8.6 0 Calma 6 Sur 0 -- -- 100
2018-01-10 05:00:00 8.2 3 Sudoeste 9 Oeste 0 -- -- 99
2018-01-10 04:00:00 8.3 5 Oeste 10 Oeste 0 -- -- 99
2018-01-10 03:00:00 8.4 4 Este 13 Norte 0 -- -- 97
2018-01-10 02:00:00 9.2 8 Norte 19 Noroeste 0 -- -- 97
2018-01-10 01:00:00 10.4 12 Noroeste 21 Noroeste 0 -- -- 97
2018-01-10 00:00:00 10.7 6 Oeste 11 Oeste 0 -- -- 99
2018-01-09 23:00:00 10.4 8 Sudoeste 14 Sur 0.2 -- -- 99
2018-01-09 22:00:00 10.4 7 Sudoeste 21 Sudoeste 0 -- -- 98
2018-01-09 21:00:00 10.7 15 Sudoeste 22 Sudoeste 0 -- -- 98
2018-01-09 20:00:00 10.5 12 Sudoeste 28 Sudoeste 0 -- -- 98
2018-01-09 19:00:00 10.7 15 Sudoeste 30 Sur 0.6 -- -- 96
2018-01-09 18:00:00 10.3 23 Sur 37 Sur 1 -- -- 97
2018-01-09 17:00:00 9.8 28 Sur 37 Sur 0.6 -- -- 97
2018-01-09 16:00:00 9.8 27 Sur 43 Sur 0.8 -- -- 96
2018-01-09 15:00:00 9.6 24 Sur 45 Sur 0.4 -- -- 94
2018-01-09 14:00:00 8.9 29 Sur 41 Sur 0.8 -- -- 95
2018-01-09 13:00:00 7.7 11 Sur 17 Sur 2 -- -- 96
2018-01-09 12:00:00 7.2 11 Sur 19 Sur 0.8 -- -- 92
2018-01-09 11:00:00 6.8 9 Sur 18 Sur 0 -- -- 86
2018-01-09 10:00:00 6.3 10 Sur 16 Sur 0 -- -- 82
2018-01-09 09:00:00 5.3 8 Sur 17 Sur 0 -- -- 85
2018-01-09 08:00:00 4.4 11 Sur 21 Sur 0 -- -- 88
2018-01-09 07:00:00 3.6 6 Sur 13 Sudeste 0 -- -- 90
2018-01-09 06:00:00 3 4 Sudeste 13 Sudeste 0 -- -- 92
2018-01-09 05:00:00 3.2 7 Sudeste 10 Sur 0 -- -- 92
2018-01-09 04:00:00 2.6 4 Sudoeste 9 Sur 0 -- -- 95
2018-01-09 03:00:00 2.5 7 Este 13 Este 0 -- -- 91
2018-01-09 02:00:00 3.1 6 Sudeste 8 Sudeste 0 -- -- 90
2018-01-09 01:00:00 2.9 8 Sudeste 10 Sudeste 0 -- -- 91
2018-01-09 00:00:00 3.7 4 Sudeste 6 Este 0 -- -- 89
2018-01-08 23:00:00 4.5 4 Sudeste 5 Sudeste 0 -- -- 90
2018-01-08 22:00:00 4.7 0 Calma 10 Este 0 -- -- 86
2018-01-08 21:00:00 5.4 7 Sudeste 9 Sudeste 0 -- -- 82
2018-01-08 20:00:00 7.4 4 Este -- -- 0 -- -- 73
2018-01-08 19:00:00 7.1 6 Nordeste 8 Norte 0 -- -- 76
2018-01-08 18:00:00 9.2 6 Nordeste 20 Nordeste 0 -- -- 66
2018-01-08 17:00:00 9.9 11 Nordeste 23 Norte 0 -- -- 63
2018-01-08 16:00:00 10 10 Nordeste 19 Este 0 -- -- 63
2018-01-08 15:00:00 10.1 10 Este 25 Este 0 -- -- 68
2018-01-08 14:00:00 9.1 12 Este 24 Este 0 -- -- 71
2018-01-08 13:00:00 8.2 15 Este 28 Nordeste 0 -- -- 73
2018-01-08 12:00:00 7.4 16 Nordeste 27 Nordeste 0 -- -- 82
2018-01-08 11:00:00 6.3 17 Nordeste 27 Nordeste 0 -- -- 88
2018-01-08 10:00:00 5.5 13 Nordeste 23 Norte 0 -- -- 94
2018-01-08 09:00:00 4.9 11 Norte 24 Nordeste 0 -- -- 97
2018-01-08 08:00:00 4.3 14 Nordeste 27 Nordeste 0 -- -- 96
2018-01-08 07:00:00 4.7 14 Nordeste 27 Nordeste 0 -- -- 94
2018-01-08 06:00:00 5.4 11 Nordeste 18 Nordeste 0.2 -- -- 97
2018-01-08 05:00:00 5.6 5 Nordeste 7 Nordeste 0 -- -- 97
2018-01-08 04:00:00 5.7 0 Calma 3 Este 0 -- -- 95
2018-01-08 03:00:00 5.7 2 Noroeste 9 Noroeste 1.8 -- -- 94
2018-01-08 02:00:00 5.8 0 Calma 8 Este 0 -- -- 89
2018-01-08 01:00:00 6.1 6 Este 11 Nordeste 0 -- -- 86
2018-01-08 00:00:00 5.8 4 Norte 10 Norte 0 -- -- 84
2018-01-07 23:00:00 5.9 7 Norte 11 Norte 0 -- -- 83
2018-01-07 22:00:00 7 4 Norte 8 Norte 0 -- -- 78
2018-01-07 21:00:00 7.9 5 Norte 8 Norte 0 -- -- 74
2018-01-07 20:00:00 8.2 5 Noroeste 10 Norte 0 -- -- 71
2018-01-07 19:00:00 8.4 6 Norte 10 Norte 0 -- -- 69
2018-01-07 18:00:00 9.1 6 Norte 14 Noroeste 0 -- -- 66
2018-01-07 17:00:00 9.8 6 Noroeste 14 Noroeste 0 -- -- 62
2018-01-07 16:00:00 9.4 12 Noroeste 19 Noroeste 0 -- -- 63
2018-01-07 15:00:00 9.3 6 Noroeste 17 Oeste 0 -- -- 60
2018-01-07 14:00:00 8.5 6 Sudoeste 13 Oeste 0 -- -- 74
2018-01-07 13:00:00 7.1 3 Sur 12 Oeste 0 -- -- 75
2018-01-07 12:00:00 6.6 6 Oeste 12 Oeste 0 -- -- 75
2018-01-07 11:00:00 4.9 3 Oeste 9 Norte 0 -- -- 85
2018-01-07 10:00:00 3.8 4 Norte 13 Norte 0 -- -- 85
2018-01-07 09:00:00 3.6 6 Norte 15 Norte 0 -- -- 86
2018-01-07 08:00:00 3.3 6 Norte 10 Norte 0 -- -- 85
2018-01-07 07:00:00 3.3 5 Norte 9 Norte 0 -- -- 87
2018-01-07 06:00:00 4 5 Norte 13 Norte 0 -- -- 84
2018-01-07 05:00:00 4 4 Norte 13 Norte 0 -- -- 87
2018-01-07 04:00:00 3.6 5 Norte 11 Norte 0 -- -- 90
2018-01-07 03:00:00 3.4 7 Noroeste 12 Noroeste 0 -- -- 91
2018-01-07 02:00:00 3.9 2 Noroeste 13 Noroeste 0 -- -- 88
2018-01-07 01:00:00 4.4 5 Norte 16 Norte 0 -- -- 85
2018-01-07 00:00:00 5 9 Norte 18 Norte 0 -- -- 81
2018-01-06 23:00:00 5.6 11 Norte 23 Noroeste 0 -- -- 78
2018-01-06 22:00:00 6.2 17 Norte 25 Noroeste 0 -- -- 72
2018-01-06 21:00:00 6.8 15 Norte 25 Norte 0 -- -- 68
2018-01-06 20:00:00 7.1 12 Noroeste 22 Noroeste 0 -- -- 67
2018-01-06 19:00:00 8.2 14 Norte 37 Noroeste 0 -- -- 61
2018-01-06 18:00:00 9.5 14 Noroeste 41 Norte 0 -- -- 56
2018-01-06 17:00:00 10.7 22 Norte 38 Noroeste 0 -- -- 47
2018-01-06 16:00:00 10.7 22 Norte 37 Norte 0 -- -- 45
2018-01-06 15:00:00 10.5 24 Norte 35 Noroeste 0 -- -- 48
2018-01-06 14:00:00 10 22 Noroeste 33 Norte 0 -- -- 55
2018-01-06 13:00:00 9.3 17 Norte 33 Norte 0 -- -- 66
2018-01-06 12:00:00 8.3 15 Norte 30 Norte 0 -- -- 72
2018-01-06 11:00:00 7.3 13 Norte 27 Norte 0 -- -- 77
2018-01-06 10:00:00 5.9 11 Norte 20 Norte 0 -- -- 84
2018-01-06 09:00:00 5.6 11 Norte 24 Norte 0 -- -- 86
2018-01-06 08:00:00 6.2 15 Norte 28 Norte 0 -- -- 86
2018-01-06 07:00:00 6.7 19 Norte 30 Norte 0 -- -- 85
2018-01-06 06:00:00 7.3 13 Norte 19 Norte 0 -- -- 81
2018-01-06 05:00:00 7.4 11 Norte 24 Norte 0 -- -- 84
2018-01-06 04:00:00 7.6 13 Norte 24 Norte 0 -- -- 84
2018-01-06 03:00:00 7.9 13 Norte 21 Norte 0 -- -- 87
2018-01-06 02:00:00 8.1 8 Norte 21 Norte 0 -- -- 95
2018-01-06 01:00:00 8.6 9 Norte 15 Noroeste 0 -- -- 97
2018-01-06 00:00:00 8.9 7 Noroeste 16 Noroeste 0 -- -- 97
2018-01-05 23:00:00 9.2 7 Noroeste 12 Noroeste 0.2 -- -- 97
2018-01-05 22:00:00 9.5 0 Calma 12 Noroeste 1 -- -- 98
2018-01-05 21:00:00 9.9 4 Nordeste 10 Oeste 2 -- -- 97
2018-01-05 20:00:00 10.5 0 Calma 8 Sudoeste 2.2 -- -- 98
2018-01-05 19:00:00 10.6 6 Sudoeste 10 Sudoeste 1 -- -- 97
2018-01-05 18:00:00 10.8 5 Sudoeste 10 Sur 0.2 -- -- 96
2018-01-05 17:00:00 10.9 8 Sur 18 Sudoeste 4 -- -- 96
2018-01-05 16:00:00 11.3 11 Sudoeste 20 Oeste 2.8 -- -- 98
2018-01-05 15:00:00 11.3 10 Sudoeste 15 Sudoeste 3.8 -- -- 99
2018-01-05 14:00:00 11.7 14 Sudoeste 40 Sudoeste 3.8 -- -- 96
2018-01-05 13:00:00 13 28 Sudoeste 41 Sudoeste 0 -- -- 85
2018-01-05 12:00:00 13 22 Sudoeste 38 Sudoeste 0 -- -- 84
2018-01-05 11:00:00 12.6 24 Sudoeste 38 Sur 0 -- -- 86
2018-01-05 10:00:00 11.8 24 Sudoeste 34 Sudoeste 0 -- -- 90
2018-01-05 09:00:00 11.3 19 Sudoeste 28 Sur 0 -- -- 95
2018-01-05 08:00:00 11.1 19 Sur 26 Sur 0 -- -- 96
2018-01-05 07:00:00 11.2 14 Sudoeste 25 Sudoeste 0 -- -- 96
2018-01-05 06:00:00 11.3 15 Sudoeste 25 Sudoeste 0 -- -- 97
2018-01-05 05:00:00 11.5 14 Sudoeste 22 Sudoeste 0 -- -- 97
2018-01-05 04:00:00 11.8 15 Sudoeste 22 Sudoeste 0 -- -- 95
2018-01-05 03:00:00 11.8 5 Sudoeste 16 Sudoeste 0 -- -- 97
2018-01-05 02:00:00 11.8 10 Sudoeste 17 Oeste 0 -- -- 95
2018-01-05 01:00:00 11.8 12 Oeste 32 Oeste 0 -- -- 94
2018-01-05 00:00:00 13 13 Oeste 21 Oeste 0 -- -- 91
2018-01-04 23:00:00 13.1 17 Oeste 28 Noroeste 0 -- -- 91
2018-01-04 22:00:00 13.2 9 Oeste 16 Oeste 0 -- -- 91
2018-01-04 21:00:00 13.6 7 Oeste 23 Oeste 0 -- -- 89
2018-01-04 20:00:00 14.3 12 Oeste 17 Oeste 0 -- -- 86
2018-01-04 19:00:00 14.7 8 Oeste 12 Oeste 0 -- -- 85
2018-01-04 18:00:00 15 3 Sur 8 Noroeste 0 -- -- 84
2018-01-04 17:00:00 15.3 4 Noroeste 10 Noroeste 0 -- -- 81
2018-01-04 16:00:00 14.8 6 Norte 15 Noroeste 0 -- -- 85
2018-01-04 15:00:00 15.5 12 Sudoeste 18 Oeste 0 -- -- 87
2018-01-04 14:00:00 15.7 6 Oeste 14 Noroeste 0 -- -- 82
2018-01-04 13:00:00 15.1 7 Sudoeste 14 Oeste 0 -- -- 88
2018-01-04 12:00:00 14.6 3 Sur 7 Sur 0 -- -- 85
2018-01-04 11:00:00 13.9 3 Oeste 5 Oeste 0 -- -- 93
2018-01-04 10:00:00 13.4 3 Noroeste 8 Noroeste 0 -- -- 94
2018-01-04 09:00:00 13.4 3 Norte 6 Noroeste 0 -- -- 90
2018-01-04 08:00:00 13.5 3 Nordeste 9 Noroeste 0 -- -- 88
2018-01-04 07:00:00 13.6 3 Norte 9 Norte 0 -- -- 88
2018-01-04 06:00:00 13.6 4 Norte 14 Norte 0 -- -- 89
2018-01-04 05:00:00 13.6 6 Norte 11 Norte 0 -- -- 94
2018-01-04 04:00:00 13.8 0 Calma 6 Norte 0 -- -- 94
2018-01-04 03:00:00 13.9 6 Norte 10 Norte 0 -- -- 94
2018-01-04 02:00:00 14.1 5 Noroeste 9 Norte 0 -- -- 94
2018-01-04 01:00:00 14.2 5 Noroeste 9 Noroeste 0 -- -- 95
2018-01-04 00:00:00 14.4 8 Noroeste 12 Noroeste 0 -- -- 94
2018-01-03 23:00:00 14.4 4 Noroeste 8 Noroeste 0 -- -- 92
2018-01-03 22:00:00 14.5 3 Noroeste 5 Noroeste 0 -- -- 89
2018-01-03 21:00:00 14.8 0 Calma 12 Norte 0 -- -- 87
2018-01-03 20:00:00 15 6 Norte 10 Norte 0 -- -- 86
2018-01-03 19:00:00 15.3 5 Norte 9 Norte 0 -- -- 84
2018-01-03 18:00:00 15.7 5 Noroeste 17 Noroeste 0 -- -- 82
2018-01-03 17:00:00 16 12 Norte 20 Norte 0 -- -- 79
2018-01-03 16:00:00 16.6 9 Noroeste 17 Norte 0 -- -- 77
2018-01-03 15:00:00 16.3 11 Noroeste 17 Noroeste 0 -- -- 78
2018-01-03 14:00:00 15.7 10 Noroeste 17 Noroeste 0 -- -- 81
2018-01-03 13:00:00 15.5 6 Noroeste 14 Noroeste 0 -- -- 83
2018-01-03 12:00:00 14 4 Sur 7 Sudoeste 0 -- -- 95
2018-01-03 11:00:00 12.9 0 Calma 5 Sudoeste 0 -- -- 95
2018-01-03 10:00:00 12 0 Calma 4 Sur 0 -- -- 97
2018-01-03 09:00:00 11 5 Sur 6 Norte 0 -- -- 97
2018-01-03 08:00:00 11.2 0 Calma 4 Sudeste 0 -- -- 96
2018-01-03 07:00:00 12.1 0 Calma 5 Sudoeste 0 -- -- 94
2018-01-03 06:00:00 12.4 0 Calma 4 Norte 0 -- -- 93
2018-01-03 05:00:00 12.5 5 Norte 10 Noroeste 0 -- -- 93
2018-01-03 04:00:00 12.7 5 Noroeste 8 Norte 0 -- -- 91
2018-01-03 03:00:00 12.7 0 Calma 4 Sur 0 -- -- 89
2018-01-03 02:00:00 12.9 2 Sur 5 Sur 0 -- -- 88
2018-01-03 01:00:00 13 3 Sur 5 Oeste 0 -- -- 88
2018-01-03 00:00:00 13 2 Sudoeste 8 Norte 0 -- -- 88
2018-01-02 23:00:00 13 4 Noroeste 6 Noroeste 0 -- -- 85
2018-01-02 22:00:00 13.1 3 Oeste 9 Norte 0 -- -- 86
2018-01-02 21:00:00 13.3 4 Norte 7 Norte 0 -- -- 81
2018-01-02 20:00:00 13 5 Norte 10 Norte 0 -- -- 82
2018-01-02 19:00:00 13.3 5 Norte 9 Noroeste 0 -- -- 81
2018-01-02 18:00:00 14.5 4 Norte 12 Norte 0 -- -- 78
2018-01-02 17:00:00 14.9 5 Noroeste 13 Noroeste 0 -- -- 74
2018-01-02 16:00:00 15.1 4 Noroeste 10 Noroeste 0 -- -- 75
2018-01-02 15:00:00 15.6 5 Noroeste 12 Oeste 0 -- -- 73
2018-01-02 14:00:00 14.2 3 Sudoeste 8 Oeste 0 -- -- 80
2018-01-02 13:00:00 11.6 4 Sudoeste 6 Sudoeste 0 -- -- 87
2018-01-02 12:00:00 9.2 4 Sudoeste 6 Sudoeste 0 -- -- 94
2018-01-02 11:00:00 6.7 3 Sudoeste 6 Sudoeste 0 -- -- 100
2018-01-02 10:00:00 4.7 0 Calma 8 Sur 0 -- -- 100
2018-01-02 09:00:00 3.4 3 Sudeste 7 Este 0.2 -- -- 99
2018-01-02 08:00:00 3.9 2 Este 4 Sudeste 0 -- -- 99
2018-01-02 07:00:00 4.6 0 Calma -- -- 0 -- -- 99
2018-01-02 06:00:00 4.7 0 Calma 5 Sudeste 0 -- -- 98
2018-01-02 05:00:00 5.2 5 Sudeste 7 Sudeste 0 -- -- 98
2018-01-02 04:00:00 5.6 5 Sudeste 8 Sur 0 -- -- 98
2018-01-02 03:00:00 5.2 6 Sudeste 7 Sudeste 0 -- -- 96
2018-01-02 02:00:00 6.4 0 Calma -- -- 0 -- -- 96
2018-01-02 01:00:00 6.7 0 Calma 4 Sudeste 0 -- -- 96
2018-01-02 00:00:00 8 0 Calma 3 Norte 0 -- -- 94
2018-01-01 23:00:00 8.7 2 Noroeste 3 Noroeste 0 -- -- 93
2018-01-01 22:00:00 9.7 0 Calma 4 Oeste 0 -- -- 86
2018-01-01 21:00:00 10.9 3 Sudeste 5 Sur 0 -- -- 82
2018-01-01 20:00:00 12.3 3 Norte 9 Norte 0 -- -- 75
2018-01-01 19:00:00 12.8 6 Norte 12 Noroeste 0 -- -- 74
2018-01-01 18:00:00 14.1 8 Noroeste 15 Noroeste 0 -- -- 68
2018-01-01 17:00:00 14.6 8 Norte 17 Noroeste 0 -- -- 66
2018-01-01 16:00:00 14.2 5 Oeste 11 Sudoeste 0 -- -- 73
2018-01-01 15:00:00 13.3 7 Sudoeste 14 Oeste 0 -- -- 77
2018-01-01 14:00:00 11.9 8 Oeste 12 Sudoeste 0 -- -- 86
2018-01-01 13:00:00 10.4 6 Sudoeste 9 Sudoeste 0 -- -- 89
2018-01-01 12:00:00 9.5 4 Sudoeste 8 Sur 0 -- -- 89
2018-01-01 11:00:00 7.4 2 Sudeste 7 Sur 0 -- -- 98
2018-01-01 10:00:00 4.7 3 Sudeste 8 Nordeste 0 -- -- 100
2018-01-01 09:00:00 3 5 Nordeste 7 Norte 0 -- -- 100
2018-01-01 08:00:00 3.4 4 Este 8 Sudeste 0 -- -- 99
2018-01-01 07:00:00 3.9 3 Noroeste 5 Norte 0 -- -- 99
2018-01-01 06:00:00 3.7 5 Noroeste 8 Este 0 -- -- 97
2018-01-01 05:00:00 5.1 5 Nordeste 13 Este 0 -- -- 96
2018-01-01 04:00:00 5.5 8 Este 15 Este 0 -- -- 94
2018-01-01 03:00:00 5.8 5 Este 14 Este 0 -- -- 96
2018-01-01 02:00:00 6.6 6 Sudeste 9 Sudeste 0 -- -- 93
2018-01-01 01:00:00 7.9 4 Nordeste 9 Norte 0 -- -- 91
2018-01-01 00:00:00 8.8 6 Norte 9 Noroeste 0 -- -- 91
2017-12-31 23:00:00 9.9 7 Norte 18 Norte 0 -- -- 86
2017-12-31 22:00:00 10.8 15 Norte 26 Norte 0 -- -- 79
2017-12-31 21:00:00 10.4 6 Norte 9 Norte 0 -- -- 82
2017-12-31 20:00:00 11.6 6 Norte 10 Norte 0 -- -- 84
2017-12-31 19:00:00 12.4 3 Norte 17 Norte 0 -- -- 83
2017-12-31 18:00:00 13.2 14 Norte 24 Noroeste 0 -- -- 79
2017-12-31 17:00:00 13.4 8 Oeste 40 Noroeste 0.6 -- -- 94
2017-12-31 16:00:00 15 28 Oeste 47 Oeste 0 -- -- 76
2017-12-31 15:00:00 15.3 21 Sudoeste 37 Oeste 0 -- -- 74
2017-12-31 14:00:00 14.8 23 Sudoeste 31 Sudoeste 0 -- -- 80
2017-12-31 13:00:00 13.8 19 Sudoeste 27 Sudoeste 0 -- -- 84
2017-12-31 12:00:00 11.7 14 Sudoeste 19 Sudoeste 0 -- -- 91
2017-12-31 11:00:00 10.8 3 Sur 15 Sur 0 -- -- 93
2017-12-31 10:00:00 9.8 6 Sur 15 Sudeste 0 -- -- 95
2017-12-31 09:00:00 8.5 7 Sudeste 11 Sudeste 0 -- -- 97
2017-12-31 08:00:00 8 7 Sur 10 Sudeste 0 -- -- 98
2017-12-31 07:00:00 7.8 4 Sudeste 5 Sudeste 0 -- -- 97
2017-12-31 06:00:00 8.1 0 Calma 4 Oeste 0 -- -- 98
2017-12-31 05:00:00 7.6 0 Calma 5 Sudeste 0 -- -- 96
2017-12-31 04:00:00 8.2 6 Sudeste 12 Este 0 -- -- 95
2017-12-31 03:00:00 8.8 8 Este 10 Este 0 -- -- 95
2017-12-31 02:00:00 8.5 6 Sudeste 7 Este 0 -- -- 96
2017-12-31 01:00:00 8.5 2 Sur 4 Sur 0 -- -- 93